sensor_id;sensor_type;location;lat;lon;timestamp;P1;durP1;ratioP1;P2;durP2;ratioP2
1753;SDS011;58380;48.312;9.246;2023-04-25T08:12:03;6.00;;;3.33;;
1753;SDS011;58380;48.312;9.246;2023-04-25T08:17:00;6.85;;;3.22;;
1753;SDS011;58380;48.312;9.246;2023-04-25T08:19:28;6.82;;;3.03;;
1753;SDS011;58380;48.312;9.246;2023-04-25T08:21:54;6.00;;;3.20;;
1753;SDS011;58380;48.312;9.246;2023-04-25T08:26:46;9.88;;;2.17;;
1753;SDS011;58380;48.312;9.246;2023-04-25T08:29:11;7.23;;;2.60;;
1753;SDS011;58380;48.312;9.246;2023-04-25T08:31:37;11.27;;;2.57;;
1753;SDS011;58380;48.312;9.246;2023-04-25T08:34:02;10.27;;;2.55;;
1753;SDS011;58380;48.312;9.246;2023-04-25T08:36:28;6.17;;;1.90;;
1753;SDS011;58380;48.312;9.246;2023-04-25T08:38:54;3.92;;;1.50;;
1753;SDS011;58380;48.312;9.246;2023-04-25T08:41:22;3.25;;;1.40;;
1753;SDS011;58380;48.312;9.246;2023-04-25T08:43:49;4.68;;;2.28;;
1753;SDS011;58380;48.312;9.246;2023-04-25T08:46:17;7.13;;;2.00;;
1753;SDS011;58380;48.312;9.246;2023-04-25T08:48:46;3.50;;;2.00;;
1753;SDS011;58380;48.312;9.246;2023-04-25T08:51:23;4.07;;;1.95;;
1753;SDS011;58380;48.312;9.246;2023-04-25T08:53:52;4.23;;;1.90;;
1753;SDS011;58380;48.312;9.246;2023-04-25T08:56:27;3.65;;;1.95;;
1753;SDS011;58380;48.312;9.246;2023-04-25T08:59:01;2.97;;;1.63;;
1753;SDS011;58380;48.312;9.246;2023-04-25T09:01:50;3.60;;;1.60;;
1753;SDS011;58380;48.312;9.246;2023-04-25T09:04:21;3.28;;;1.50;;
1753;SDS011;58380;48.312;9.246;2023-04-25T09:06:47;2.40;;;1.33;;
1753;SDS011;58380;48.312;9.246;2023-04-25T09:09:15;5.18;;;2.22;;
1753;SDS011;58380;48.312;9.246;2023-04-25T09:11:59;5.72;;;2.13;;
1753;SDS011;58380;48.312;9.246;2023-04-25T09:18:41;2.35;;;1.38;;
1753;SDS011;58380;48.312;9.246;2023-04-25T09:21:12;1.20;;;0.80;;
1753;SDS011;58380;48.312;9.246;2023-04-25T09:24:12;1.10;;;0.70;;
1753;SDS011;58380;48.312;9.246;2023-04-25T09:27:32;0.50;;;0.50;;
1753;SDS011;58380;48.312;9.246;2023-04-25T09:30:28;1.10;;;0.60;;
1753;SDS011;58380;48.312;9.246;2023-04-25T09:33:12;2.83;;;0.77;;
1753;SDS011;58380;48.312;9.246;2023-04-25T09:35:44;1.17;;;0.60;;
1753;SDS011;58380;48.312;9.246;2023-04-25T09:38:18;2.30;;;1.00;;
1753;SDS011;58380;48.312;9.246;2023-04-25T09:40:44;1.20;;;0.60;;
1753;SDS011;58380;48.312;9.246;2023-04-25T09:43:22;0.73;;;0.60;;
1753;SDS011;58380;48.312;9.246;2023-04-25T09:45:49;1.25;;;0.60;;
1753;SDS011;58380;48.312;9.246;2023-04-25T09:48:20;1.30;;;0.70;;
1753;SDS011;58380;48.312;9.246;2023-04-25T09:51:07;4.88;;;1.20;;
1753;SDS011;58380;48.312;9.246;2023-04-25T09:53:53;1.70;;;0.50;;
1753;SDS011;58380;48.312;9.246;2023-04-25T09:56:19;1.08;;;0.68;;
1753;SDS011;58380;48.312;9.246;2023-04-25T09:58:45;0.60;;;0.40;;
1753;SDS011;58380;48.312;9.246;2023-04-25T10:01:19;0.45;;;0.20;;
1753;SDS011;58380;48.312;9.246;2023-04-25T10:03:56;0.57;;;0.40;;
1753;SDS011;58380;48.312;9.246;2023-04-25T10:06:26;0.43;;;0.20;;
1753;SDS011;58380;48.312;9.246;2023-04-25T10:08:54;0.22;;;0.20;;
1753;SDS011;58380;48.312;9.246;2023-04-25T10:11:20;0.08;;;0.08;;
1753;SDS011;58380;48.312;9.246;2023-04-25T10:13:49;0.32;;;0.20;;
1753;SDS011;58380;48.312;9.246;2023-04-25T10:16:18;0.63;;;0.20;;
1753;SDS011;58380;48.312;9.246;2023-04-25T10:21:28;0.28;;;0.10;;
1753;SDS011;58380;48.312;9.246;2023-04-25T10:23:58;0.25;;;0.17;;
1753;SDS011;58380;48.312;9.246;2023-04-25T10:26:25;0.55;;;0.20;;
1753;SDS011;58380;48.312;9.246;2023-04-25T10:28:55;0.65;;;0.47;;
1753;SDS011;58380;48.312;9.246;2023-04-25T10:31:26;0.60;;;0.28;;
1753;SDS011;58380;48.312;9.246;2023-04-25T10:33:55;1.23;;;0.43;;
1753;SDS011;58380;48.312;9.246;2023-04-25T10:36:51;0.17;;;0.10;;
1753;SDS011;58380;48.312;9.246;2023-04-25T10:39:23;0.10;;;0.10;;
1753;SDS011;58380;48.312;9.246;2023-04-25T10:41:53;0.40;;;0.20;;
1753;SDS011;58380;48.312;9.246;2023-04-25T10:44:26;0.10;;;0.10;;
1753;SDS011;58380;48.312;9.246;2023-04-25T10:47:02;0.25;;;0.10;;
1753;SDS011;58380;48.312;9.246;2023-04-25T10:49:36;0.77;;;0.20;;
1753;SDS011;58380;48.312;9.246;2023-04-25T10:52:15;0.50;;;0.10;;
1753;SDS011;58380;48.312;9.246;2023-04-25T10:54:51;0.80;;;0.30;;
1753;SDS011;58380;48.312;9.246;2023-04-25T10:57:31;0.13;;;0.10;;
1753;SDS011;58380;48.312;9.246;2023-04-25T11:02:31;1.80;;;0.40;;
1753;SDS011;58380;48.312;9.246;2023-04-25T11:05:02;1.27;;;0.45;;
1753;SDS011;58380;48.312;9.246;2023-04-25T11:07:38;0.35;;;0.20;;
1753;SDS011;58380;48.312;9.246;2023-04-25T11:10:16;0.25;;;0.25;;
1753;SDS011;58380;48.312;9.246;2023-04-25T11:12:44;0.35;;;0.20;;
1753;SDS011;58380;48.312;9.246;2023-04-25T11:15:11;0.38;;;0.22;;
1753;SDS011;58380;48.312;9.246;2023-04-25T11:17:37;0.20;;;0.17;;
1753;SDS011;58380;48.312;9.246;2023-04-25T11:20:04;0.30;;;0.20;;
1753;SDS011;58380;48.312;9.246;2023-04-25T11:22:36;0.43;;;0.30;;
1753;SDS011;58380;48.312;9.246;2023-04-25T11:25:06;0.63;;;0.30;;
1753;SDS011;58380;48.312;9.246;2023-04-25T11:27:33;0.10;;;0.10;;
1753;SDS011;58380;48.312;9.246;2023-04-25T11:30:17;0.50;;;0.20;;
1753;SDS011;58380;48.312;9.246;2023-04-25T11:32:46;0.20;;;0.10;;
1753;SDS011;58380;48.312;9.246;2023-04-25T11:35:12;0.73;;;0.40;;
1753;SDS011;58380;48.312;9.246;2023-04-25T11:37:42;0.10;;;0.10;;
1753;SDS011;58380;48.312;9.246;2023-04-25T11:40:09;0.10;;;0.10;;
1753;SDS011;58380;48.312;9.246;2023-04-25T11:42:48;0.20;;;0.17;;
1753;SDS011;58380;48.312;9.246;2023-04-25T11:48:20;0.25;;;0.20;;
1753;SDS011;58380;48.312;9.246;2023-04-25T11:51:24;0.80;;;0.20;;
1753;SDS011;58380;48.312;9.246;2023-04-25T11:57:40;0.30;;;0.10;;
1753;SDS011;58380;48.312;9.246;2023-04-25T12:00:45;0.57;;;0.30;;
1753;SDS011;58380;48.312;9.246;2023-04-25T12:03:37;0.20;;;0.20;;
1753;SDS011;58380;48.312;9.246;2023-04-25T12:06:31;0.50;;;0.30;;
1753;SDS011;58380;48.312;9.246;2023-04-25T12:09:07;0.38;;;0.28;;
1753;SDS011;58380;48.312;9.246;2023-04-25T12:12:09;0.08;;;0.05;;
1753;SDS011;58380;48.312;9.246;2023-04-25T12:14:50;0.20;;;0.03;;
1753;SDS011;58380;48.312;9.246;2023-04-25T12:21:15;0.40;;;0.20;;
1753;SDS011;58380;48.312;9.246;2023-04-25T12:23:41;0.13;;;0.10;;
1753;SDS011;58380;48.312;9.246;2023-04-25T12:29:32;0.20;;;0.20;;
1753;SDS011;58380;48.312;9.246;2023-04-25T12:39:41;0.20;;;0.20;;
1753;SDS011;58380;48.312;9.246;2023-04-25T13:04:13;2.67;;;0.80;;
1753;SDS011;58380;48.312;9.246;2023-04-25T13:06:51;1.15;;;0.60;;
1753;SDS011;58380;48.312;9.246;2023-04-25T13:13:05;1.73;;;0.80;;
1753;SDS011;58380;48.312;9.246;2023-04-25T13:18:47;0.90;;;0.60;;
1753;SDS011;58380;48.312;9.246;2023-04-25T13:21:29;0.47;;;0.40;;
1753;SDS011;58380;48.312;9.246;2023-04-25T13:23:59;1.08;;;0.60;;
1753;SDS011;58380;48.312;9.246;2023-04-25T13:26:34;1.42;;;0.70;;
1753;SDS011;58380;48.312;9.246;2023-04-25T13:29:05;1.30;;;0.80;;
1753;SDS011;58380;48.312;9.246;2023-04-25T13:31:34;1.20;;;0.90;;
1753;SDS011;58380;48.312;9.246;2023-04-25T13:34:00;1.27;;;0.82;;
1753;SDS011;58380;48.312;9.246;2023-04-25T13:36:25;1.42;;;0.93;;
1753;SDS011;58380;48.312;9.246;2023-04-25T13:38:59;2.50;;;1.40;;
1753;SDS011;58380;48.312;9.246;2023-04-25T13:41:25;1.20;;;0.88;;
1753;SDS011;58380;48.312;9.246;2023-04-25T13:46:35;0.60;;;0.60;;
1753;SDS011;58380;48.312;9.246;2023-04-25T13:49:06;1.08;;;0.80;;
1753;SDS011;58380;48.312;9.246;2023-04-25T13:51:31;0.97;;;0.77;;
1753;SDS011;58380;48.312;9.246;2023-04-25T13:54:08;1.48;;;0.60;;
1753;SDS011;58380;48.312;9.246;2023-04-25T13:56:39;0.80;;;0.60;;
1753;SDS011;58380;48.312;9.246;2023-04-25T13:59:25;0.88;;;0.75;;
1753;SDS011;58380;48.312;9.246;2023-04-25T14:01:59;1.23;;;0.60;;
1753;SDS011;58380;48.312;9.246;2023-04-25T14:04:27;4.13;;;2.03;;
1753;SDS011;58380;48.312;9.246;2023-04-25T14:06:52;6.93;;;3.25;;
1753;SDS011;58380;48.312;9.246;2023-04-25T14:09:21;2.83;;;1.40;;
1753;SDS011;58380;48.312;9.246;2023-04-25T14:11:50;1.95;;;1.10;;
1753;SDS011;58380;48.312;9.246;2023-04-25T14:14:22;1.92;;;1.08;;
1753;SDS011;58380;48.312;9.246;2023-04-25T14:16:48;5.20;;;1.45;;
1753;SDS011;58380;48.312;9.246;2023-04-25T14:19:17;2.17;;;1.40;;
1753;SDS011;58380;48.312;9.246;2023-04-25T14:21:43;2.50;;;1.30;;
1753;SDS011;58380;48.312;9.246;2023-04-25T14:24:09;3.97;;;1.60;;
1753;SDS011;58380;48.312;9.246;2023-04-25T14:26:38;3.05;;;1.67;;
1753;SDS011;58380;48.312;9.246;2023-04-25T14:31:31;2.08;;;1.27;;
1753;SDS011;58380;48.312;9.246;2023-04-25T14:33:58;5.03;;;1.80;;
1753;SDS011;58380;48.312;9.246;2023-04-25T14:36:25;2.20;;;1.35;;
1753;SDS011;58380;48.312;9.246;2023-04-25T14:38:53;2.03;;;1.05;;
1753;SDS011;58380;48.312;9.246;2023-04-25T14:41:22;2.03;;;1.10;;
1753;SDS011;58380;48.312;9.246;2023-04-25T14:43:49;2.25;;;1.33;;
1753;SDS011;58380;48.312;9.246;2023-04-25T14:46:15;1.73;;;0.95;;
1753;SDS011;58380;48.312;9.246;2023-04-25T14:48:41;1.63;;;1.10;;
1753;SDS011;58380;48.312;9.246;2023-04-25T14:51:13;2.47;;;1.58;;
1753;SDS011;58380;48.312;9.246;2023-04-25T14:53:42;1.92;;;1.20;;
1753;SDS011;58380;48.312;9.246;2023-04-25T14:56:07;3.38;;;1.48;;
1753;SDS011;58380;48.312;9.246;2023-04-25T14:58:33;2.28;;;1.30;;
1753;SDS011;58380;48.312;9.246;2023-04-25T15:00:59;2.08;;;1.35;;
1753;SDS011;58380;48.312;9.246;2023-04-25T15:03:28;3.08;;;1.70;;
1753;SDS011;58380;48.312;9.246;2023-04-25T15:05:54;4.00;;;1.85;;
1753;SDS011;58380;48.312;9.246;2023-04-25T15:08:20;3.33;;;1.80;;
1753;SDS011;58380;48.312;9.246;2023-04-25T15:10:46;2.55;;;1.60;;
1753;SDS011;58380;48.312;9.246;2023-04-25T15:13:12;3.25;;;2.05;;
1753;SDS011;58380;48.312;9.246;2023-04-25T15:15:44;3.47;;;2.05;;
1753;SDS011;58380;48.312;9.246;2023-04-25T15:18:09;4.22;;;2.17;;
1753;SDS011;58380;48.312;9.246;2023-04-25T15:20:35;3.27;;;1.97;;
1753;SDS011;58380;48.312;9.246;2023-04-25T15:23:01;2.92;;;1.98;;
1753;SDS011;58380;48.312;9.246;2023-04-25T15:25:28;3.38;;;2.05;;
1753;SDS011;58380;48.312;9.246;2023-04-25T15:28:01;3.38;;;1.80;;
1753;SDS011;58380;48.312;9.246;2023-04-25T15:30:32;3.03;;;1.92;;
1753;SDS011;58380;48.312;9.246;2023-04-25T15:32:58;3.05;;;1.85;;
1753;SDS011;58380;48.312;9.246;2023-04-25T15:35:29;3.38;;;2.03;;
1753;SDS011;58380;48.312;9.246;2023-04-25T15:37:55;3.08;;;2.15;;
1753;SDS011;58380;48.312;9.246;2023-04-25T15:40:20;3.27;;;2.13;;
1753;SDS011;58380;48.312;9.246;2023-04-25T15:42:51;3.50;;;2.22;;
1753;SDS011;58380;48.312;9.246;2023-04-25T15:45:18;5.20;;;2.45;;
1753;SDS011;58380;48.312;9.246;2023-04-25T15:47:50;4.95;;;2.75;;
1753;SDS011;58380;48.312;9.246;2023-04-25T15:50:19;6.50;;;2.35;;
1753;SDS011;58380;48.312;9.246;2023-04-25T15:52:45;3.47;;;2.33;;
1753;SDS011;58380;48.312;9.246;2023-04-25T15:55:14;3.88;;;2.35;;
1753;SDS011;58380;48.312;9.246;2023-04-25T15:57:41;4.70;;;2.15;;
1753;SDS011;58380;48.312;9.246;2023-04-25T16:00:07;4.28;;;2.70;;
1753;SDS011;58380;48.312;9.246;2023-04-25T16:02:39;4.80;;;2.03;;
1753;SDS011;58380;48.312;9.246;2023-04-25T16:05:08;4.28;;;2.30;;
1753;SDS011;58380;48.312;9.246;2023-04-25T16:07:39;4.47;;;2.20;;
1753;SDS011;58380;48.312;9.246;2023-04-25T16:10:07;3.80;;;2.25;;
1753;SDS011;58380;48.312;9.246;2023-04-25T16:12:35;5.53;;;2.50;;
1753;SDS011;58380;48.312;9.246;2023-04-25T16:15:01;5.03;;;2.78;;
1753;SDS011;58380;48.312;9.246;2023-04-25T16:19:54;4.88;;;2.85;;
1753;SDS011;58380;48.312;9.246;2023-04-25T16:22:23;5.07;;;2.97;;
1753;SDS011;58380;48.312;9.246;2023-04-25T16:24:49;4.30;;;2.72;;
1753;SDS011;58380;48.312;9.246;2023-04-25T16:27:16;5.60;;;3.05;;
1753;SDS011;58380;48.312;9.246;2023-04-25T16:29:42;3.58;;;2.50;;
1753;SDS011;58380;48.312;9.246;2023-04-25T16:32:08;3.42;;;2.30;;
1753;SDS011;58380;48.312;9.246;2023-04-25T16:34:33;5.05;;;2.90;;
1753;SDS011;58380;48.312;9.246;2023-04-25T16:36:59;3.63;;;2.17;;
1753;SDS011;58380;48.312;9.246;2023-04-25T16:39:28;4.22;;;2.38;;
1753;SDS011;58380;48.312;9.246;2023-04-25T16:41:53;3.47;;;2.20;;
1753;SDS011;58380;48.312;9.246;2023-04-25T16:44:22;4.57;;;2.47;;
1753;SDS011;58380;48.312;9.246;2023-04-25T16:46:48;5.30;;;2.63;;
1753;SDS011;58380;48.312;9.246;2023-04-25T16:49:13;4.88;;;3.17;;
1753;SDS011;58380;48.312;9.246;2023-04-25T16:51:39;4.82;;;2.78;;
1753;SDS011;58380;48.312;9.246;2023-04-25T16:54:04;4.75;;;3.10;;
1753;SDS011;58380;48.312;9.246;2023-04-25T16:56:30;5.72;;;2.67;;
1753;SDS011;58380;48.312;9.246;2023-04-25T16:58:58;5.10;;;2.70;;
1753;SDS011;58380;48.312;9.246;2023-04-25T17:01:24;4.47;;;2.35;;
1753;SDS011;58380;48.312;9.246;2023-04-25T17:03:52;4.32;;;2.63;;
1753;SDS011;58380;48.312;9.246;2023-04-25T17:06:18;4.10;;;2.35;;
1753;SDS011;58380;48.312;9.246;2023-04-25T17:08:47;4.20;;;2.70;;
1753;SDS011;58380;48.312;9.246;2023-04-25T17:11:15;4.68;;;2.90;;
1753;SDS011;58380;48.312;9.246;2023-04-25T17:13:41;7.45;;;2.70;;
1753;SDS011;58380;48.312;9.246;2023-04-25T17:16:08;5.97;;;3.72;;
1753;SDS011;58380;48.312;9.246;2023-04-25T17:18:35;4.35;;;2.63;;
1753;SDS011;58380;48.312;9.246;2023-04-25T17:21:02;5.28;;;2.53;;
1753;SDS011;58380;48.312;9.246;2023-04-25T17:23:30;3.40;;;1.90;;
1753;SDS011;58380;48.312;9.246;2023-04-25T17:28:23;2.75;;;1.83;;
1753;SDS011;58380;48.312;9.246;2023-04-25T17:30:48;3.92;;;2.20;;
1753;SDS011;58380;48.312;9.246;2023-04-25T17:33:15;4.40;;;2.47;;
1753;SDS011;58380;48.312;9.246;2023-04-25T17:35:41;3.50;;;1.75;;
1753;SDS011;58380;48.312;9.246;2023-04-25T17:38:06;3.05;;;1.65;;
1753;SDS011;58380;48.312;9.246;2023-04-25T17:40:32;2.72;;;1.73;;
1753;SDS011;58380;48.312;9.246;2023-04-25T17:42:58;3.08;;;1.85;;
1753;SDS011;58380;48.312;9.246;2023-04-25T17:45:24;4.05;;;2.30;;
1753;SDS011;58380;48.312;9.246;2023-04-25T17:47:49;2.40;;;1.53;;
1753;SDS011;58380;48.312;9.246;2023-04-25T17:50:15;2.60;;;1.70;;
1753;SDS011;58380;48.312;9.246;2023-04-25T17:52:41;3.28;;;1.95;;
1753;SDS011;58380;48.312;9.246;2023-04-25T17:55:09;3.90;;;1.80;;
1753;SDS011;58380;48.312;9.246;2023-04-25T17:57:35;3.25;;;2.10;;
1753;SDS011;58380;48.312;9.246;2023-04-25T18:00:01;4.70;;;1.90;;
1753;SDS011;58380;48.312;9.246;2023-04-25T18:02:26;4.28;;;1.75;;
1753;SDS011;58380;48.312;9.246;2023-04-25T18:04:52;9.53;;;3.27;;
1753;SDS011;58380;48.312;9.246;2023-04-25T18:07:17;5.53;;;2.03;;
1753;SDS011;58380;48.312;9.246;2023-04-25T18:09:43;6.30;;;2.10;;
1753;SDS011;58380;48.312;9.246;2023-04-25T18:12:08;4.45;;;1.98;;
1753;SDS011;58380;48.312;9.246;2023-04-25T18:14:34;3.57;;;2.10;;
1753;SDS011;58380;48.312;9.246;2023-04-25T18:17:00;4.30;;;2.20;;
1753;SDS011;58380;48.312;9.246;2023-04-25T18:19:26;3.70;;;2.23;;
1753;SDS011;58380;48.312;9.246;2023-04-25T18:21:52;5.30;;;2.13;;
1753;SDS011;58380;48.312;9.246;2023-04-25T18:24:20;3.63;;;2.05;;
1753;SDS011;58380;48.312;9.246;2023-04-25T18:26:48;3.38;;;2.00;;
1753;SDS011;58380;48.312;9.246;2023-04-25T18:29:15;4.28;;;2.38;;
1753;SDS011;58380;48.312;9.246;2023-04-25T18:31:42;3.75;;;2.20;;
1753;SDS011;58380;48.312;9.246;2023-04-25T18:34:09;4.20;;;2.45;;
1753;SDS011;58380;48.312;9.246;2023-04-25T18:36:35;4.53;;;2.20;;
1753;SDS011;58380;48.312;9.246;2023-04-25T18:39:02;3.58;;;2.00;;
1753;SDS011;58380;48.312;9.246;2023-04-25T18:41:30;3.65;;;2.22;;
1753;SDS011;58380;48.312;9.246;2023-04-25T18:43:58;5.47;;;2.40;;
1753;SDS011;58380;48.312;9.246;2023-04-25T18:46:29;4.65;;;2.55;;
1753;SDS011;58380;48.312;9.246;2023-04-25T18:48:56;4.22;;;2.30;;
1753;SDS011;58380;48.312;9.246;2023-04-25T18:51:22;4.40;;;2.65;;
1753;SDS011;58380;48.312;9.246;2023-04-25T18:53:53;4.65;;;2.55;;
1753;SDS011;58380;48.312;9.246;2023-04-25T18:56:19;7.18;;;3.33;;
1753;SDS011;58380;48.312;9.246;2023-04-25T18:58:48;7.68;;;3.55;;
1753;SDS011;58380;48.312;9.246;2023-04-25T19:01:17;6.85;;;4.22;;
1753;SDS011;58380;48.312;9.246;2023-04-25T19:03:43;5.43;;;3.78;;
1753;SDS011;58380;48.312;9.246;2023-04-25T19:06:09;5.88;;;2.88;;
1753;SDS011;58380;48.312;9.246;2023-04-25T19:08:35;4.80;;;2.75;;
1753;SDS011;58380;48.312;9.246;2023-04-25T19:11:01;4.60;;;2.72;;
1753;SDS011;58380;48.312;9.246;2023-04-25T19:13:28;5.88;;;2.70;;
1753;SDS011;58380;48.312;9.246;2023-04-25T19:15:53;4.00;;;2.20;;
1753;SDS011;58380;48.312;9.246;2023-04-25T19:18:21;3.92;;;2.10;;
1753;SDS011;58380;48.312;9.246;2023-04-25T19:20:47;3.15;;;1.67;;
1753;SDS011;58380;48.312;9.246;2023-04-25T19:23:12;2.80;;;1.63;;
1753;SDS011;58380;48.312;9.246;2023-04-25T19:25:37;2.80;;;1.60;;
1753;SDS011;58380;48.312;9.246;2023-04-25T19:28:03;3.60;;;2.20;;
1753;SDS011;58380;48.312;9.246;2023-04-25T19:30:29;4.63;;;2.35;;
1753;SDS011;58380;48.312;9.246;2023-04-25T19:35:21;4.63;;;2.22;;
1753;SDS011;58380;48.312;9.246;2023-04-25T19:37:47;3.92;;;1.85;;
1753;SDS011;58380;48.312;9.246;2023-04-25T19:40:13;3.20;;;1.77;;
1753;SDS011;58380;48.312;9.246;2023-04-25T19:42:41;2.90;;;2.05;;
1753;SDS011;58380;48.312;9.246;2023-04-25T19:47:34;3.17;;;1.70;;
1753;SDS011;58380;48.312;9.246;2023-04-25T19:50:04;4.28;;;1.80;;
1753;SDS011;58380;48.312;9.246;2023-04-25T19:52:31;4.05;;;2.33;;
1753;SDS011;58380;48.312;9.246;2023-04-25T19:54:58;5.93;;;2.05;;
1753;SDS011;58380;48.312;9.246;2023-04-25T19:57:26;2.78;;;1.85;;
1753;SDS011;58380;48.312;9.246;2023-04-25T19:59:56;2.72;;;1.88;;
1753;SDS011;58380;48.312;9.246;2023-04-25T20:02:26;3.05;;;1.98;;
1753;SDS011;58380;48.312;9.246;2023-04-25T20:04:52;4.18;;;2.10;;
1753;SDS011;58380;48.312;9.246;2023-04-25T20:07:17;5.80;;;3.40;;
1753;SDS011;58380;48.312;9.246;2023-04-25T20:09:45;6.13;;;3.80;;
1753;SDS011;58380;48.312;9.246;2023-04-25T20:12:11;9.20;;;4.10;;
1753;SDS011;58380;48.312;9.246;2023-04-25T20:14:38;9.23;;;4.20;;
1753;SDS011;58380;48.312;9.246;2023-04-25T20:17:03;7.53;;;3.73;;
1753;SDS011;58380;48.312;9.246;2023-04-25T20:19:29;5.23;;;3.30;;
1753;SDS011;58380;48.312;9.246;2023-04-25T20:21:56;4.78;;;2.88;;
1753;SDS011;58380;48.312;9.246;2023-04-25T20:24:22;6.80;;;2.90;;
1753;SDS011;58380;48.312;9.246;2023-04-25T20:26:47;3.80;;;2.00;;
1753;SDS011;58380;48.312;9.246;2023-04-25T20:29:13;2.42;;;1.50;;
1753;SDS011;58380;48.312;9.246;2023-04-25T20:31:39;3.20;;;1.80;;
1753;SDS011;58380;48.312;9.246;2023-04-25T20:34:04;3.77;;;1.50;;
1753;SDS011;58380;48.312;9.246;2023-04-25T20:36:30;3.87;;;1.60;;
1753;SDS011;58380;48.312;9.246;2023-04-25T20:38:56;2.20;;;1.27;;
1753;SDS011;58380;48.312;9.246;2023-04-25T20:41:22;2.22;;;1.23;;
1753;SDS011;58380;48.312;9.246;2023-04-25T20:43:47;5.90;;;1.30;;
1753;SDS011;58380;48.312;9.246;2023-04-25T20:46:14;4.18;;;1.67;;
1753;SDS011;58380;48.312;9.246;2023-04-25T20:48:42;11.18;;;3.40;;
1753;SDS011;58380;48.312;9.246;2023-04-25T20:51:08;3.75;;;1.60;;
1753;SDS011;58380;48.312;9.246;2023-04-25T20:53:34;2.80;;;1.60;;
1753;SDS011;58380;48.312;9.246;2023-04-25T20:55:59;2.53;;;1.20;;
1753;SDS011;58380;48.312;9.246;2023-04-25T20:58:25;2.10;;;1.20;;
1753;SDS011;58380;48.312;9.246;2023-04-25T21:00:51;3.50;;;0.85;;
1753;SDS011;58380;48.312;9.246;2023-04-25T21:03:17;6.85;;;1.20;;
1753;SDS011;58380;48.312;9.246;2023-04-25T21:05:42;1.40;;;0.80;;
1753;SDS011;58380;48.312;9.246;2023-04-25T21:08:08;2.17;;;1.03;;
1753;SDS011;58380;48.312;9.246;2023-04-25T21:10:34;2.53;;;1.20;;
1753;SDS011;58380;48.312;9.246;2023-04-25T21:12:59;2.87;;;1.00;;
